sensor_id;sensor_type;location;lat;lon;timestamp;pressure;altitude;pressure_sealevel;temperature;humidity
65614;BME280;52283;49.292;10.572;2022-07-23T00:00:05;96484.25;;;21.40;64.35
65614;BME280;52283;49.292;10.572;2022-07-23T00:02:32;96504.25;;;21.57;67.20
65614;BME280;52283;49.292;10.572;2022-07-23T00:04:59;96507.81;;;21.25;67.19
65614;BME280;52283;49.292;10.572;2022-07-23T00:07:25;96507.06;;;21.24;67.29
65614;BME280;52283;49.292;10.572;2022-07-23T00:09:52;96515.38;;;21.22;68.98
65614;BME280;52283;49.292;10.572;2022-07-23T00:12:18;96516.03;;;20.98;74.75
65614;BME280;52283;49.292;10.572;2022-07-23T00:14:46;96515.88;;;20.88;76.41
65614;BME280;52283;49.292;10.572;2022-07-23T00:17:13;96504.84;;;21.00;75.65
65614;BME280;52283;49.292;10.572;2022-07-23T00:19:39;96501.41;;;21.01;74.54
65614;BME280;52283;49.292;10.572;2022-07-23T00:22:06;96498.97;;;20.98;73.94
65614;BME280;52283;49.292;10.572;2022-07-23T00:24:33;96492.66;;;21.15;72.29
65614;BME280;52283;49.292;10.572;2022-07-23T00:27:00;96489.06;;;21.14;71.20
65614;BME280;52283;49.292;10.572;2022-07-23T00:29:26;96492.06;;;21.32;70.95
65614;BME280;52283;49.292;10.572;2022-07-23T00:31:54;96505.78;;;21.02;74.17
65614;BME280;52283;49.292;10.572;2022-07-23T00:34:20;96499.19;;;20.92;75.19
65614;BME280;52283;49.292;10.572;2022-07-23T00:36:47;96482.97;;;20.70;76.61
65614;BME280;52283;49.292;10.572;2022-07-23T00:39:13;96490.94;;;20.56;77.72
65614;BME280;52283;49.292;10.572;2022-07-23T00:41:40;96489.28;;;20.46;76.59
65614;BME280;52283;49.292;10.572;2022-07-23T00:44:20;96487.94;;;20.62;74.93
65614;BME280;52283;49.292;10.572;2022-07-23T00:46:48;96486.03;;;20.64;76.46
65614;BME280;52283;49.292;10.572;2022-07-23T00:49:16;96481.28;;;20.67;76.37
65614;BME280;52283;49.292;10.572;2022-07-23T00:51:43;96483.91;;;20.73;76.68
65614;BME280;52283;49.292;10.572;2022-07-23T00:54:10;96477.47;;;20.72;73.79
65614;BME280;52283;49.292;10.572;2022-07-23T00:56:37;96474.78;;;20.82;70.68
65614;BME280;52283;49.292;10.572;2022-07-23T00:59:05;96469.47;;;20.93;68.54
65614;BME280;52283;49.292;10.572;2022-07-23T01:01:32;96478.91;;;21.04;66.54
65614;BME280;52283;49.292;10.572;2022-07-23T01:03:58;96485.84;;;21.18;65.87
65614;BME280;52283;49.292;10.572;2022-07-23T01:06:26;96488.88;;;21.27;64.73
65614;BME280;52283;49.292;10.572;2022-07-23T01:08:53;96486.97;;;21.30;65.18
65614;BME280;52283;49.292;10.572;2022-07-23T01:11:21;96497.88;;;21.41;64.06
65614;BME280;52283;49.292;10.572;2022-07-23T01:13:49;96489.91;;;21.47;63.47
65614;BME280;52283;49.292;10.572;2022-07-23T01:16:16;96481.72;;;21.51;63.19
65614;BME280;52283;49.292;10.572;2022-07-23T01:18:42;96465.94;;;21.58;63.04
65614;BME280;52283;49.292;10.572;2022-07-23T01:21:11;96459.69;;;21.59;63.60
65614;BME280;52283;49.292;10.572;2022-07-23T01:23:40;96459.09;;;21.61;63.14
65614;BME280;52283;49.292;10.572;2022-07-23T01:26:07;96449.03;;;21.68;63.36
65614;BME280;52283;49.292;10.572;2022-07-23T01:28:33;96449.06;;;21.60;63.56
65614;BME280;52283;49.292;10.572;2022-07-23T01:31:00;96448.13;;;21.57;64.27
65614;BME280;52283;49.292;10.572;2022-07-23T01:33:27;96454.16;;;21.61;64.01
65614;BME280;52283;49.292;10.572;2022-07-23T01:35:54;96455.84;;;21.65;63.92
65614;BME280;52283;49.292;10.572;2022-07-23T01:38:20;96449.41;;;21.64;63.39
65614;BME280;52283;49.292;10.572;2022-07-23T01:40:48;96463.63;;;21.64;63.37
65614;BME280;52283;49.292;10.572;2022-07-23T01:43:15;96464.97;;;21.63;63.47
65614;BME280;52283;49.292;10.572;2022-07-23T01:45:41;96466.53;;;21.56;64.06
65614;BME280;52283;49.292;10.572;2022-07-23T01:48:09;96469.78;;;21.53;64.02
65614;BME280;52283;49.292;10.572;2022-07-23T01:50:36;96481.38;;;21.47;64.78
65614;BME280;52283;49.292;10.572;2022-07-23T01:53:02;96473.19;;;21.51;63.98
65614;BME280;52283;49.292;10.572;2022-07-23T01:55:29;96462.53;;;21.59;63.96
65614;BME280;52283;49.292;10.572;2022-07-23T01:57:57;96465.53;;;21.61;63.43
65614;BME280;52283;49.292;10.572;2022-07-23T02:00:23;96462.53;;;21.59;63.80
65614;BME280;52283;49.292;10.572;2022-07-23T02:02:50;96447.56;;;21.59;63.57
65614;BME280;52283;49.292;10.572;2022-07-23T02:05:16;96451.31;;;21.61;63.03
65614;BME280;52283;49.292;10.572;2022-07-23T02:07:43;96462.53;;;21.59;63.17
65614;BME280;52283;49.292;10.572;2022-07-23T02:10:09;96459.84;;;21.61;63.11
65614;BME280;52283;49.292;10.572;2022-07-23T02:12:36;96447.69;;;21.69;62.49
65614;BME280;52283;49.292;10.572;2022-07-23T02:15:05;96452.38;;;21.74;61.67
65614;BME280;52283;49.292;10.572;2022-07-23T02:17:32;96444.50;;;21.89;60.13
65614;BME280;52283;49.292;10.572;2022-07-23T02:19:58;96434.16;;;22.02;58.91
65614;BME280;52283;49.292;10.572;2022-07-23T02:22:25;96422.16;;;22.11;57.96
65614;BME280;52283;49.292;10.572;2022-07-23T02:24:51;96428.34;;;22.17;57.83
65614;BME280;52283;49.292;10.572;2022-07-23T02:27:18;96428.53;;;22.19;57.53
65614;BME280;52283;49.292;10.572;2022-07-23T02:29:44;96429.69;;;22.16;57.41
65614;BME280;52283;49.292;10.572;2022-07-23T02:32:12;96429.28;;;22.19;57.32
65614;BME280;52283;49.292;10.572;2022-07-23T02:34:39;96426.09;;;22.15;57.30
65614;BME280;52283;49.292;10.572;2022-07-23T02:37:05;96432.88;;;22.20;56.82
65614;BME280;52283;49.292;10.572;2022-07-23T02:39:33;96429.03;;;22.25;56.01
65614;BME280;52283;49.292;10.572;2022-07-23T02:42:00;96431.88;;;22.25;55.84
65614;BME280;52283;49.292;10.572;2022-07-23T02:44:26;96428.28;;;22.25;55.91
65614;BME280;52283;49.292;10.572;2022-07-23T02:46:53;96424.94;;;22.18;56.04
65614;BME280;52283;49.292;10.572;2022-07-23T02:49:21;96431.63;;;22.13;56.06
65614;BME280;52283;49.292;10.572;2022-07-23T02:51:47;96424.09;;;22.08;56.47
65614;BME280;52283;49.292;10.572;2022-07-23T02:54:14;96431.13;;;22.00;56.79
65614;BME280;52283;49.292;10.572;2022-07-23T02:56:40;96423.84;;;21.89;57.49
65614;BME280;52283;49.292;10.572;2022-07-23T02:59:07;96425.38;;;21.82;57.44
65614;BME280;52283;49.292;10.572;2022-07-23T03:01:34;96433.56;;;21.78;57.73
65614;BME280;52283;49.292;10.572;2022-07-23T03:04:01;96434.00;;;21.75;57.99
65614;BME280;52283;49.292;10.572;2022-07-23T03:06:28;96431.91;;;21.75;57.35
65614;BME280;52283;49.292;10.572;2022-07-23T03:08:55;96439.16;;;21.69;57.63
65614;BME280;52283;49.292;10.572;2022-07-23T03:11:21;96424.34;;;21.70;57.58
65614;BME280;52283;49.292;10.572;2022-07-23T03:13:48;96422.28;;;21.71;57.53
65614;BME280;52283;49.292;10.572;2022-07-23T03:16:15;96420.19;;;21.71;57.35
65614;BME280;52283;49.292;10.572;2022-07-23T03:18:41;96428.13;;;21.73;57.38
65614;BME280;52283;49.292;10.572;2022-07-23T03:21:08;96433.47;;;21.69;57.60
65614;BME280;52283;49.292;10.572;2022-07-23T03:23:36;96442.38;;;21.65;57.50
65614;BME280;52283;49.292;10.572;2022-07-23T03:26:02;96463.28;;;21.60;57.78
65614;BME280;52283;49.292;10.572;2022-07-23T03:28:29;96460.09;;;21.56;57.97
65614;BME280;52283;49.292;10.572;2022-07-23T03:30:56;96464.25;;;21.55;57.96
65614;BME280;52283;49.292;10.572;2022-07-23T03:33:22;96444.78;;;21.51;58.14
65614;BME280;52283;49.292;10.572;2022-07-23T03:35:49;96451.78;;;21.50;58.19
65614;BME280;52283;49.292;10.572;2022-07-23T03:38:16;96448.19;;;21.50;58.19
65614;BME280;52283;49.292;10.572;2022-07-23T03:40:43;96448.78;;;21.48;58.24
65614;BME280;52283;49.292;10.572;2022-07-23T03:43:10;96451.44;;;21.46;58.18
65614;BME280;52283;49.292;10.572;2022-07-23T03:45:36;96456.16;;;21.44;58.29
65614;BME280;52283;49.292;10.572;2022-07-23T03:48:03;96464.53;;;21.42;58.59
65614;BME280;52283;49.292;10.572;2022-07-23T03:50:30;96461.09;;;21.43;58.21
65614;BME280;52283;49.292;10.572;2022-07-23T03:52:56;96458.66;;;21.40;58.44
65614;BME280;52283;49.292;10.572;2022-07-23T03:55:23;96461.56;;;21.32;58.82
65614;BME280;52283;49.292;10.572;2022-07-23T03:57:51;96462.53;;;21.27;59.03
65614;BME280;52283;49.292;10.572;2022-07-23T04:00:17;96470.66;;;21.23;59.37
65614;BME280;52283;49.292;10.572;2022-07-23T04:02:44;96475.41;;;21.20;59.16
65614;BME280;52283;49.292;10.572;2022-07-23T04:05:10;96471.22;;;21.21;59.32
65614;BME280;52283;49.292;10.572;2022-07-23T04:07:37;96474.25;;;21.23;59.32
65614;BME280;52283;49.292;10.572;2022-07-23T04:10:04;96480.50;;;21.29;59.01
65614;BME280;52283;49.292;10.572;2022-07-23T04:12:31;96486.56;;;21.34;58.82
65614;BME280;52283;49.292;10.572;2022-07-23T04:14:58;96492.63;;;21.30;59.10
65614;BME280;52283;49.292;10.572;2022-07-23T04:17:25;96486.78;;;21.28;59.48
65614;BME280;52283;49.292;10.572;2022-07-23T04:19:52;96488.47;;;21.23;59.40
65614;BME280;52283;49.292;10.572;2022-07-23T04:22:18;96474.06;;;21.21;59.64
65614;BME280;52283;49.292;10.572;2022-07-23T04:24:45;96474.28;;;21.16;60.00
65614;BME280;52283;49.292;10.572;2022-07-23T04:27:11;96478.47;;;21.15;60.30
65614;BME280;52283;49.292;10.572;2022-07-23T04:29:38;96480.00;;;21.08;60.46
65614;BME280;52283;49.292;10.572;2022-07-23T04:32:06;96474.91;;;21.07;60.62
65614;BME280;52283;49.292;10.572;2022-07-23T04:34:33;96475.84;;;21.09;60.73
65614;BME280;52283;49.292;10.572;2022-07-23T04:37:00;96473.41;;;21.06;60.87
65614;BME280;52283;49.292;10.572;2022-07-23T04:39:27;96483.44;;;20.99;61.42
65614;BME280;52283;49.292;10.572;2022-07-23T04:41:54;96478.91;;;20.96;61.28
65614;BME280;52283;49.292;10.572;2022-07-23T04:44:21;96479.66;;;20.96;61.34
65614;BME280;52283;49.292;10.572;2022-07-23T04:46:47;96484.19;;;20.99;61.30
65614;BME280;52283;49.292;10.572;2022-07-23T04:49:15;96484.59;;;21.04;61.33
65614;BME280;52283;49.292;10.572;2022-07-23T04:51:41;96492.91;;;21.01;61.51
65614;BME280;52283;49.292;10.572;2022-07-23T04:54:08;96495.75;;;21.01;61.57
65614;BME280;52283;49.292;10.572;2022-07-23T04:56:34;96496.72;;;20.96;62.15
65614;BME280;52283;49.292;10.572;2022-07-23T04:59:01;96490.63;;;21.00;61.88
65614;BME280;52283;49.292;10.572;2022-07-23T05:01:28;96501.63;;;21.04;61.99
65614;BME280;52283;49.292;10.572;2022-07-23T05:03:54;96493.09;;;21.04;61.93
65614;BME280;52283;49.292;10.572;2022-07-23T05:06:22;96496.88;;;21.06;62.15
65614;BME280;52283;49.292;10.572;2022-07-23T05:08:48;96500.84;;;21.11;61.88
65614;BME280;52283;49.292;10.572;2022-07-23T05:11:15;96490.59;;;21.15;61.98
65614;BME280;52283;49.292;10.572;2022-07-23T05:13:42;96491.88;;;21.22;61.80
65614;BME280;52283;49.292;10.572;2022-07-23T05:16:08;96495.13;;;21.26;61.71
65614;BME280;52283;49.292;10.572;2022-07-23T05:18:35;96495.09;;;21.34;61.45
65614;BME280;52283;49.292;10.572;2022-07-23T05:21:01;96495.78;;;21.42;60.98
65614;BME280;52283;49.292;10.572;2022-07-23T05:23:29;96492.91;;;21.49;60.76
65614;BME280;52283;49.292;10.572;2022-07-23T05:25:56;96496.28;;;21.55;60.77
65614;BME280;52283;49.292;10.572;2022-07-23T05:28:22;96505.94;;;21.60;60.36
65614;BME280;52283;49.292;10.572;2022-07-23T05:30:49;96504.19;;;21.65;60.24
65614;BME280;52283;49.292;10.572;2022-07-23T05:33:17;96508.16;;;21.69;60.12
65614;BME280;52283;49.292;10.572;2022-07-23T05:35:44;96520.06;;;21.75;59.73
65614;BME280;52283;49.292;10.572;2022-07-23T05:38:10;96527.66;;;21.73;60.08
65614;BME280;52283;49.292;10.572;2022-07-23T05:40:38;96534.50;;;21.70;60.09
65614;BME280;52283;49.292;10.572;2022-07-23T05:43:05;96540.19;;;21.70;60.38
65614;BME280;52283;49.292;10.572;2022-07-23T05:45:31;96536.19;;;21.73;60.29
65614;BME280;52283;49.292;10.572;2022-07-23T05:47:58;96543.91;;;21.80;59.81
65614;BME280;52283;49.292;10.572;2022-07-23T05:50:25;96540.81;;;21.93;59.37
65614;BME280;52283;49.292;10.572;2022-07-23T05:52:51;96539.59;;;22.04;59.16
65614;BME280;52283;49.292;10.572;2022-07-23T05:55:18;96536.50;;;22.17;58.55
65614;BME280;52283;49.292;10.572;2022-07-23T05:57:46;96535.47;;;22.30;58.26
65614;BME280;52283;49.292;10.572;2022-07-23T06:00:13;96532.72;;;22.39;58.07
65614;BME280;52283;49.292;10.572;2022-07-23T06:02:39;96533.94;;;22.54;57.37
65614;BME280;52283;49.292;10.572;2022-07-23T06:05:07;96536.38;;;22.57;57.14
65614;BME280;52283;49.292;10.572;2022-07-23T06:07:34;96533.22;;;22.70;57.06
65614;BME280;52283;49.292;10.572;2022-07-23T06:10:01;96533.88;;;22.78;56.55
65614;BME280;52283;49.292;10.572;2022-07-23T06:12:27;96540.44;;;22.89;55.84
65614;BME280;52283;49.292;10.572;2022-07-23T06:14:55;96561.41;;;23.01;55.63
65614;BME280;52283;49.292;10.572;2022-07-23T06:17:22;96565.94;;;23.04;55.60
65614;BME280;52283;49.292;10.572;2022-07-23T06:19:48;96566.38;;;23.18;55.28
65614;BME280;52283;49.292;10.572;2022-07-23T06:22:15;96550.19;;;23.20;55.31
65614;BME280;52283;49.292;10.572;2022-07-23T06:24:41;96565.34;;;23.40;54.94
65614;BME280;52283;49.292;10.572;2022-07-23T06:27:08;96572.13;;;23.45;54.90
65614;BME280;52283;49.292;10.572;2022-07-23T06:29:35;96563.75;;;23.47;54.66
65614;BME280;52283;49.292;10.572;2022-07-23T06:32:03;96583.22;;;23.58;55.12
65614;BME280;52283;49.292;10.572;2022-07-23T06:34:29;96574.66;;;23.58;54.58
65614;BME280;52283;49.292;10.572;2022-07-23T06:36:56;96574.41;;;23.46;54.25
65614;BME280;52283;49.292;10.572;2022-07-23T06:39:22;96583.03;;;23.21;54.95
65614;BME280;52283;49.292;10.572;2022-07-23T06:41:49;96571.91;;;23.16;55.37
65614;BME280;52283;49.292;10.572;2022-07-23T06:44:16;96576.59;;;23.21;55.24
65614;BME280;52283;49.292;10.572;2022-07-23T06:46:43;96583.13;;;23.14;55.93
65614;BME280;52283;49.292;10.572;2022-07-23T06:49:11;96594.84;;;23.00;55.78
65614;BME280;52283;49.292;10.572;2022-07-23T06:51:38;96582.03;;;22.92;56.25
65614;BME280;52283;49.292;10.572;2022-07-23T06:54:04;96583.19;;;22.89;56.03
65614;BME280;52283;49.292;10.572;2022-07-23T06:56:31;96599.47;;;22.96;56.71
65614;BME280;52283;49.292;10.572;2022-07-23T06:58:57;96598.06;;;22.79;56.86
65614;BME280;52283;49.292;10.572;2022-07-23T07:01:24;96617.78;;;22.60;57.18
65614;BME280;52283;49.292;10.572;2022-07-23T07:03:50;96625.81;;;22.54;57.71
65614;BME280;52283;49.292;10.572;2022-07-23T07:06:19;96620.97;;;22.39;58.02
65614;BME280;52283;49.292;10.572;2022-07-23T07:08:45;96624.47;;;22.30;58.85
65614;BME280;52283;49.292;10.572;2022-07-23T07:11:12;96634.25;;;22.12;59.27
65614;BME280;52283;49.292;10.572;2022-07-23T07:13:38;96635.22;;;22.07;59.80
65614;BME280;52283;49.292;10.572;2022-07-23T07:16:05;96644.78;;;22.27;59.68
65614;BME280;52283;49.292;10.572;2022-07-23T07:18:32;96629.50;;;22.14;59.57
65614;BME280;52283;49.292;10.572;2022-07-23T07:20:58;96639.97;;;22.04;60.58
65614;BME280;52283;49.292;10.572;2022-07-23T07:23:26;96634.44;;;22.06;60.53
65614;BME280;52283;49.292;10.572;2022-07-23T07:25:52;96642.59;;;22.02;61.24
65614;BME280;52283;49.292;10.572;2022-07-23T07:30:46;96652.13;;;21.97;62.28
65614;BME280;52283;49.292;10.572;2022-07-23T07:33:13;96645.63;;;22.12;61.91
65614;BME280;52283;49.292;10.572;2022-07-23T07:35:40;96650.09;;;21.90;63.06
65614;BME280;52283;49.292;10.572;2022-07-23T07:38:06;96635.13;;;21.82;63.25
65614;BME280;52283;49.292;10.572;2022-07-23T07:40:34;96649.09;;;21.95;63.13
65614;BME280;52283;49.292;10.572;2022-07-23T07:43:01;96638.53;;;22.28;62.32
65614;BME280;52283;49.292;10.572;2022-07-23T07:45:28;96644.72;;;22.09;63.18
65614;BME280;52283;49.292;10.572;2022-07-23T07:47:55;96637.94;;;21.89;64.08
65614;BME280;52283;49.292;10.572;2022-07-23T07:50:22;96633.94;;;21.92;64.07
65614;BME280;52283;49.292;10.572;2022-07-23T07:52:49;96634.44;;;22.06;63.74
65614;BME280;52283;49.292;10.572;2022-07-23T07:55:15;96638.47;;;21.96;64.09
65614;BME280;52283;49.292;10.572;2022-07-23T07:57:43;96631.81;;;22.01;62.32
65614;BME280;52283;49.292;10.572;2022-07-23T08:00:10;96624.50;;;21.82;61.96
65614;BME280;52283;49.292;10.572;2022-07-23T08:02:41;96628.19;;;21.60;61.96
65614;BME280;52283;49.292;10.572;2022-07-23T08:05:09;96629.13;;;21.63;61.28
65614;BME280;52283;49.292;10.572;2022-07-23T08:07:36;96644.50;;;21.67;61.49
65614;BME280;52283;49.292;10.572;2022-07-23T08:10:05;96655.72;;;21.50;60.46
65614;BME280;52283;49.292;10.572;2022-07-23T08:12:38;96662.94;;;21.51;60.66
65614;BME280;52283;49.292;10.572;2022-07-23T08:15:07;96666.59;;;20.90;66.99
65614;BME280;52283;49.292;10.572;2022-07-23T08:17:34;96692.16;;;20.01;75.05
65614;BME280;52283;49.292;10.572;2022-07-23T08:20:00;96696.56;;;19.66;80.89
65614;BME280;52283;49.292;10.572;2022-07-23T08:22:41;96687.69;;;19.41;85.42
65614;BME280;52283;49.292;10.572;2022-07-23T08:25:09;96699.69;;;18.98;89.10
65614;BME280;52283;49.292;10.572;2022-07-23T08:27:35;96709.97;;;18.67;94.74
65614;BME280;52283;49.292;10.572;2022-07-23T08:30:02;96723.50;;;18.61;98.79
65614;BME280;52283;49.292;10.572;2022-07-23T08:32:30;96721.78;;;18.57;100.00
65614;BME280;52283;49.292;10.572;2022-07-23T08:34:57;96725.91;;;18.56;98.75
65614;BME280;52283;49.292;10.572;2022-07-23T08:37:23;96735.72;;;18.55;96.59
65614;BME280;52283;49.292;10.572;2022-07-23T08:39:50;96746.69;;;18.59;93.87
65614;BME280;52283;49.292;10.572;2022-07-23T08:42:17;96739.50;;;18.58;93.67
65614;BME280;52283;49.292;10.572;2022-07-23T08:44:45;96744.25;;;18.42;93.86
65614;BME280;52283;49.292;10.572;2022-07-23T08:47:12;96760.09;;;18.11;98.46
65614;BME280;52283;49.292;10.572;2022-07-23T08:49:41;96760.56;;;17.89;100.00
65614;BME280;52283;49.292;10.572;2022-07-23T08:52:08;96760.69;;;17.57;100.00
65614;BME280;52283;49.292;10.572;2022-07-23T08:54:35;96763.28;;;17.42;100.00
65614;BME280;52283;49.292;10.572;2022-07-23T08:57:02;96760.22;;;17.13;100.00
65614;BME280;52283;49.292;10.572;2022-07-23T08:59:28;96754.00;;;17.01;100.00
65614;BME280;52283;49.292;10.572;2022-07-23T09:01:57;96730.13;;;17.02;100.00
65614;BME280;52283;49.292;10.572;2022-07-23T09:04:25;96731.97;;;17.00;100.00
65614;BME280;52283;49.292;10.572;2022-07-23T09:06:54;96711.34;;;17.05;100.00
65614;BME280;52283;49.292;10.572;2022-07-23T09:09:21;96701.03;;;17.21;100.00
65614;BME280;52283;49.292;10.572;2022-07-23T09:11:48;96703.00;;;17.39;100.00
65614;BME280;52283;49.292;10.572;2022-07-23T09:14:36;96699.84;;;17.29;100.00
65614;BME280;52283;49.292;10.572;2022-07-23T09:17:11;96712.00;;;17.37;100.00
65614;BME280;52283;49.292;10.572;2022-07-23T09:19:38;96708.75;;;17.33;100.00
65614;BME280;52283;49.292;10.572;2022-07-23T09:22:20;96716.91;;;17.37;100.00
65614;BME280;52283;49.292;10.572;2022-07-23T09:25:04;96714.94;;;17.45;100.00
65614;BME280;52283;49.292;10.572;2022-07-23T09:27:46;96722.09;;;17.46;100.00
65614;BME280;52283;49.292;10.572;2022-07-23T09:30:13;96712.09;;;17.45;100.00
65614;BME280;52283;49.292;10.572;2022-07-23T09:32:40;96718.97;;;17.50;100.00
65614;BME280;52283;49.292;10.572;2022-07-23T09:35:07;96715.28;;;17.55;100.00
65614;BME280;52283;49.292;10.572;2022-07-23T09:37:35;96698.19;;;17.60;100.00
65614;BME280;52283;49.292;10.572;2022-07-23T09:40:06;96696.56;;;17.65;100.00
65614;BME280;52283;49.292;10.572;2022-07-23T09:42:33;96711.03;;;17.75;100.00
65614;BME280;52283;49.292;10.572;2022-07-23T09:45:00;96706.31;;;17.90;100.00
65614;BME280;52283;49.292;10.572;2022-07-23T09:47:28;96697.47;;;18.07;100.00
65614;BME280;52283;49.292;10.572;2022-07-23T09:50:00;96703.84;;;18.21;100.00
65614;BME280;52283;49.292;10.572;2022-07-23T09:52:30;96702.47;;;18.14;100.00
65614;BME280;52283;49.292;10.572;2022-07-23T09:55:00;96707.09;;;18.25;100.00
65614;BME280;52283;49.292;10.572;2022-07-23T09:57:27;96712.75;;;18.25;100.00
65614;BME280;52283;49.292;10.572;2022-07-23T09:59:57;96717.25;;;18.41;100.00
65614;BME280;52283;49.292;10.572;2022-07-23T10:02:26;96718.53;;;18.53;100.00
65614;BME280;52283;49.292;10.572;2022-07-23T10:04:54;96720.25;;;18.56;100.00
65614;BME280;52283;49.292;10.572;2022-07-23T10:07:22;96726.31;;;18.61;100.00
65614;BME280;52283;49.292;10.572;2022-07-23T10:09:50;96736.38;;;18.48;100.00
65614;BME280;52283;49.292;10.572;2022-07-23T10:12:20;96737.09;;;18.28;100.00
65614;BME280;52283;49.292;10.572;2022-07-23T10:15:04;96739.06;;;18.33;100.00
65614;BME280;52283;49.292;10.572;2022-07-23T10:17:31;96741.13;;;18.33;100.00
65614;BME280;52283;49.292;10.572;2022-07-23T10:19:58;96746.72;;;18.46;100.00
65614;BME280;52283;49.292;10.572;2022-07-23T10:22:26;96746.81;;;18.53;100.00
65614;BME280;52283;49.292;10.572;2022-07-23T10:25:00;96736.13;;;18.59;100.00
65614;BME280;52283;49.292;10.572;2022-07-23T10:27:43;96743.53;;;19.04;100.00
65614;BME280;52283;49.292;10.572;2022-07-23T10:30:16;96757.22;;;19.42;100.00
65614;BME280;52283;49.292;10.572;2022-07-23T10:32:52;96762.03;;;19.83;100.00
65614;BME280;52283;49.292;10.572;2022-07-23T10:35:26;96752.03;;;19.54;100.00
65614;BME280;52283;49.292;10.572;2022-07-23T10:37:59;96746.56;;;19.56;100.00
65614;BME280;52283;49.292;10.572;2022-07-23T10:40:30;96743.41;;;19.59;100.00
65614;BME280;52283;49.292;10.572;2022-07-23T10:42:59;96753.28;;;19.45;100.00
65614;BME280;52283;49.292;10.572;2022-07-23T10:45:29;96748.09;;;19.36;100.00
65614;BME280;52283;49.292;10.572;2022-07-23T10:48:12;96756.34;;;19.26;100.00
65614;BME280;52283;49.292;10.572;2022-07-23T10:50:39;96749.66;;;19.37;100.00
65614;BME280;52283;49.292;10.572;2022-07-23T10:53:14;96753.84;;;19.43;100.00
65614;BME280;52283;49.292;10.572;2022-07-23T10:55:45;96746.69;;;19.50;100.00
65614;BME280;52283;49.292;10.572;2022-07-23T10:58:21;96738.81;;;19.56;100.00
65614;BME280;52283;49.292;10.572;2022-07-23T11:00:48;96735.66;;;19.60;99.31
65614;BME280;52283;49.292;10.572;2022-07-23T11:03:30;96736.28;;;19.73;100.00
65614;BME280;52283;49.292;10.572;2022-07-23T11:05:58;96731.59;;;19.84;100.00
65614;BME280;52283;49.292;10.572;2022-07-23T11:08:25;96730.97;;;20.14;100.00
65614;BME280;52283;49.292;10.572;2022-07-23T11:10:54;96740.00;;;20.56;93.61
65614;BME280;52283;49.292;10.572;2022-07-23T11:13:42;96741.78;;;21.05;91.16
65614;BME280;52283;49.292;10.572;2022-07-23T11:16:28;96739.91;;;21.45;88.45
65614;BME280;52283;49.292;10.572;2022-07-23T11:18:59;96726.75;;;21.73;83.40
65614;BME280;52283;49.292;10.572;2022-07-23T11:21:56;96739.34;;;21.32;87.47
65614;BME280;52283;49.292;10.572;2022-07-23T11:24:24;96731.00;;;21.03;86.84
65614;BME280;52283;49.292;10.572;2022-07-23T11:27:02;96722.66;;;21.36;79.75
65614;BME280;52283;49.292;10.572;2022-07-23T11:29:43;96727.75;;;21.37;79.75
65614;BME280;52283;49.292;10.572;2022-07-23T11:32:33;96719.28;;;21.92;73.52
65614;BME280;52283;49.292;10.572;2022-07-23T11:35:18;96720.94;;;22.51;67.46
65614;BME280;52283;49.292;10.572;2022-07-23T11:37:46;96706.50;;;23.06;64.17
65614;BME280;52283;49.292;10.572;2022-07-23T11:40:14;96707.22;;;22.57;64.07
65614;BME280;52283;49.292;10.572;2022-07-23T11:42:52;96705.03;;;22.73;66.27
65614;BME280;52283;49.292;10.572;2022-07-23T11:45:21;96697.38;;;23.08;63.25
65614;BME280;52283;49.292;10.572;2022-07-23T11:47:48;96699.66;;;23.86;63.16
65614;BME280;52283;49.292;10.572;2022-07-23T11:50:14;96691.94;;;23.79;63.24
65614;BME280;52283;49.292;10.572;2022-07-23T11:52:41;96685.56;;;23.88;63.02
65614;BME280;52283;49.292;10.572;2022-07-23T11:55:09;96687.91;;;23.82;64.20
65614;BME280;52283;49.292;10.572;2022-07-23T11:57:38;96683.88;;;24.02;61.70
65614;BME280;52283;49.292;10.572;2022-07-23T12:00:07;96682.19;;;23.99;57.28
